HE23 weather

Daraw Airport
Aswan Governorate, Egypt

Public forecast

Using degrees Celsius for public forecast. Weather courtesy of forecast.io.

METAR (pilot weather report)

Closest report is Aswan International Airport, 28.1 nm (52.0 km) SSW. Retrieved 2019/04/22 02:00 UTC (49 minutes ago):

HESN 220200Z 36006KT CAVOK 15/M01 Q1015 NOSIG

TAF (pilot weather forecast)

Forecast is more than 12 hours old.

Closest forecast is Aswan International Airport, 28.1 nm (52.0 km) SSW. Retrieved 2019/04/21 00:40 UTC (1 day ago):

TAF HESN 212300Z 2200/2306 36010G20KT CAVOK